sensor_id;sensor_type;location;lat;lon;timestamp;P1;durP1;ratioP1;P2;durP2;ratioP2
11313;SDS011;5712;48.858;9.206;2023-10-31T00:01:06;0.87;;;0.50;;
11313;SDS011;5712;48.858;9.206;2023-10-31T00:03:33;0.60;;;0.60;;
11313;SDS011;5712;48.858;9.206;2023-10-31T00:06:01;0.40;;;0.40;;
11313;SDS011;5712;48.858;9.206;2023-10-31T00:08:28;0.60;;;0.50;;
11313;SDS011;5712;48.858;9.206;2023-10-31T00:10:54;1.03;;;0.60;;
11313;SDS011;5712;48.858;9.206;2023-10-31T00:13:21;0.40;;;0.40;;
11313;SDS011;5712;48.858;9.206;2023-10-31T00:15:47;0.60;;;0.60;;
11313;SDS011;5712;48.858;9.206;2023-10-31T00:18:14;2.37;;;0.70;;
11313;SDS011;5712;48.858;9.206;2023-10-31T00:20:40;0.60;;;0.60;;
11313;SDS011;5712;48.858;9.206;2023-10-31T00:23:08;2.27;;;0.63;;
11313;SDS011;5712;48.858;9.206;2023-10-31T00:25:35;0.83;;;0.63;;
11313;SDS011;5712;48.858;9.206;2023-10-31T00:28:01;0.77;;;0.60;;
11313;SDS011;5712;48.858;9.206;2023-10-31T00:30:28;0.60;;;0.60;;
11313;SDS011;5712;48.858;9.206;2023-10-31T00:32:54;0.73;;;0.53;;
11313;SDS011;5712;48.858;9.206;2023-10-31T00:35:21;0.50;;;0.50;;
11313;SDS011;5712;48.858;9.206;2023-10-31T00:37:47;0.67;;;0.50;;
11313;SDS011;5712;48.858;9.206;2023-10-31T00:40:15;0.63;;;0.50;;
11313;SDS011;5712;48.858;9.206;2023-10-31T00:42:42;2.80;;;0.70;;
11313;SDS011;5712;48.858;9.206;2023-10-31T00:45:09;0.90;;;0.80;;
11313;SDS011;5712;48.858;9.206;2023-10-31T00:47:35;0.50;;;0.50;;
11313;SDS011;5712;48.858;9.206;2023-10-31T00:50:02;0.60;;;0.60;;
11313;SDS011;5712;48.858;9.206;2023-10-31T00:52:29;0.60;;;0.60;;
11313;SDS011;5712;48.858;9.206;2023-10-31T00:54:55;1.03;;;0.50;;
11313;SDS011;5712;48.858;9.206;2023-10-31T00:57:23;1.40;;;1.03;;
11313;SDS011;5712;48.858;9.206;2023-10-31T00:59:50;1.10;;;0.50;;
11313;SDS011;5712;48.858;9.206;2023-10-31T01:02:16;1.27;;;0.50;;
11313;SDS011;5712;48.858;9.206;2023-10-31T01:04:43;2.10;;;0.60;;
11313;SDS011;5712;48.858;9.206;2023-10-31T01:07:09;0.50;;;0.50;;
11313;SDS011;5712;48.858;9.206;2023-10-31T01:09:37;0.57;;;0.40;;
11313;SDS011;5712;48.858;9.206;2023-10-31T01:12:04;2.93;;;0.60;;
11313;SDS011;5712;48.858;9.206;2023-10-31T01:14:32;0.80;;;0.60;;
11313;SDS011;5712;48.858;9.206;2023-10-31T01:17:00;1.40;;;0.60;;
11313;SDS011;5712;48.858;9.206;2023-10-31T01:19:26;1.80;;;0.60;;
11313;SDS011;5712;48.858;9.206;2023-10-31T01:21:53;0.53;;;0.50;;
11313;SDS011;5712;48.858;9.206;2023-10-31T01:24:19;1.30;;;0.53;;
11313;SDS011;5712;48.858;9.206;2023-10-31T01:26:46;0.87;;;0.60;;
11313;SDS011;5712;48.858;9.206;2023-10-31T01:29:12;1.13;;;0.50;;
11313;SDS011;5712;48.858;9.206;2023-10-31T01:31:41;1.63;;;0.60;;
11313;SDS011;5712;48.858;9.206;2023-10-31T01:34:08;0.60;;;0.60;;
11313;SDS011;5712;48.858;9.206;2023-10-31T01:36:35;1.53;;;0.70;;
11313;SDS011;5712;48.858;9.206;2023-10-31T01:39:01;4.60;;;1.00;;
11313;SDS011;5712;48.858;9.206;2023-10-31T01:41:28;0.50;;;0.50;;
11313;SDS011;5712;48.858;9.206;2023-10-31T01:43:54;2.00;;;0.67;;
11313;SDS011;5712;48.858;9.206;2023-10-31T01:46:20;1.60;;;0.70;;
11313;SDS011;5712;48.858;9.206;2023-10-31T01:48:48;0.97;;;0.60;;
11313;SDS011;5712;48.858;9.206;2023-10-31T01:51:15;0.60;;;0.60;;
11313;SDS011;5712;48.858;9.206;2023-10-31T01:53:42;3.47;;;0.90;;
11313;SDS011;5712;48.858;9.206;2023-10-31T01:56:08;1.73;;;0.70;;
11313;SDS011;5712;48.858;9.206;2023-10-31T01:58:35;0.60;;;0.60;;
11313;SDS011;5712;48.858;9.206;2023-10-31T02:01:03;0.80;;;0.80;;
11313;SDS011;5712;48.858;9.206;2023-10-31T02:03:30;0.83;;;0.70;;
11313;SDS011;5712;48.858;9.206;2023-10-31T02:05:59;1.17;;;0.70;;
11313;SDS011;5712;48.858;9.206;2023-10-31T02:08:26;2.13;;;0.70;;
11313;SDS011;5712;48.858;9.206;2023-10-31T02:10:52;1.60;;;0.63;;
11313;SDS011;5712;48.858;9.206;2023-10-31T02:13:19;0.90;;;0.80;;
11313;SDS011;5712;48.858;9.206;2023-10-31T02:15:45;0.60;;;0.60;;
11313;SDS011;5712;48.858;9.206;2023-10-31T02:18:12;0.60;;;0.60;;
11313;SDS011;5712;48.858;9.206;2023-10-31T02:20:39;0.83;;;0.70;;
11313;SDS011;5712;48.858;9.206;2023-10-31T02:23:07;2.10;;;0.80;;
11313;SDS011;5712;48.858;9.206;2023-10-31T02:25:33;0.60;;;0.60;;
11313;SDS011;5712;48.858;9.206;2023-10-31T02:28:00;1.40;;;0.67;;
11313;SDS011;5712;48.858;9.206;2023-10-31T02:30:27;1.23;;;0.57;;
11313;SDS011;5712;48.858;9.206;2023-10-31T02:32:53;1.03;;;0.70;;
11313;SDS011;5712;48.858;9.206;2023-10-31T02:35:20;1.70;;;0.70;;
11313;SDS011;5712;48.858;9.206;2023-10-31T02:37:47;1.90;;;0.80;;
11313;SDS011;5712;48.858;9.206;2023-10-31T02:40:15;0.67;;;0.50;;
11313;SDS011;5712;48.858;9.206;2023-10-31T02:42:42;1.13;;;0.60;;
11313;SDS011;5712;48.858;9.206;2023-10-31T02:45:12;1.33;;;0.60;;
11313;SDS011;5712;48.858;9.206;2023-10-31T02:47:43;1.60;;;0.70;;
11313;SDS011;5712;48.858;9.206;2023-10-31T02:50:10;0.50;;;0.50;;
11313;SDS011;5712;48.858;9.206;2023-10-31T02:52:36;1.90;;;0.70;;
11313;SDS011;5712;48.858;9.206;2023-10-31T02:55:03;0.60;;;0.60;;
11313;SDS011;5712;48.858;9.206;2023-10-31T02:57:31;0.80;;;0.77;;
11313;SDS011;5712;48.858;9.206;2023-10-31T02:59:58;0.57;;;0.57;;
11313;SDS011;5712;48.858;9.206;2023-10-31T03:02:24;0.93;;;0.80;;
11313;SDS011;5712;48.858;9.206;2023-10-31T03:04:51;0.80;;;0.67;;
11313;SDS011;5712;48.858;9.206;2023-10-31T03:07:17;0.67;;;0.60;;
11313;SDS011;5712;48.858;9.206;2023-10-31T03:09:43;1.00;;;0.80;;
11313;SDS011;5712;48.858;9.206;2023-10-31T03:12:10;0.77;;;0.57;;
11313;SDS011;5712;48.858;9.206;2023-10-31T03:14:38;1.00;;;0.70;;
11313;SDS011;5712;48.858;9.206;2023-10-31T03:17:04;1.17;;;0.67;;
11313;SDS011;5712;48.858;9.206;2023-10-31T03:19:31;2.20;;;0.80;;
11313;SDS011;5712;48.858;9.206;2023-10-31T03:21:57;0.70;;;0.70;;
11313;SDS011;5712;48.858;9.206;2023-10-31T03:24:24;1.37;;;0.90;;
11313;SDS011;5712;48.858;9.206;2023-10-31T03:26:50;0.70;;;0.70;;
11313;SDS011;5712;48.858;9.206;2023-10-31T03:29:17;1.50;;;0.90;;
11313;SDS011;5712;48.858;9.206;2023-10-31T03:31:45;0.87;;;0.80;;
11313;SDS011;5712;48.858;9.206;2023-10-31T03:34:12;0.77;;;0.77;;
11313;SDS011;5712;48.858;9.206;2023-10-31T03:36:38;1.00;;;0.90;;
11313;SDS011;5712;48.858;9.206;2023-10-31T03:39:05;1.50;;;0.90;;
11313;SDS011;5712;48.858;9.206;2023-10-31T03:41:31;0.93;;;0.83;;
11313;SDS011;5712;48.858;9.206;2023-10-31T03:43:58;1.43;;;0.90;;
11313;SDS011;5712;48.858;9.206;2023-10-31T03:46:24;1.00;;;0.80;;
11313;SDS011;5712;48.858;9.206;2023-10-31T03:48:52;1.33;;;0.90;;
11313;SDS011;5712;48.858;9.206;2023-10-31T03:51:18;2.60;;;0.70;;
11313;SDS011;5712;48.858;9.206;2023-10-31T03:53:45;2.00;;;0.90;;
11313;SDS011;5712;48.858;9.206;2023-10-31T03:56:11;2.50;;;0.80;;
11313;SDS011;5712;48.858;9.206;2023-10-31T03:58:38;3.67;;;0.80;;
11313;SDS011;5712;48.858;9.206;2023-10-31T04:01:07;0.97;;;0.80;;
11313;SDS011;5712;48.858;9.206;2023-10-31T04:03:33;1.03;;;0.70;;
11313;SDS011;5712;48.858;9.206;2023-10-31T04:06:02;1.47;;;0.70;;
11313;SDS011;5712;48.858;9.206;2023-10-31T04:08:28;0.73;;;0.70;;
11313;SDS011;5712;48.858;9.206;2023-10-31T04:10:55;2.17;;;0.87;;
11313;SDS011;5712;48.858;9.206;2023-10-31T04:13:21;8.47;;;1.00;;
11313;SDS011;5712;48.858;9.206;2023-10-31T04:15:48;1.07;;;0.60;;
11313;SDS011;5712;48.858;9.206;2023-10-31T04:18:14;0.50;;;0.50;;
11313;SDS011;5712;48.858;9.206;2023-10-31T04:20:41;0.63;;;0.50;;
11313;SDS011;5712;48.858;9.206;2023-10-31T04:23:09;1.13;;;0.70;;
11313;SDS011;5712;48.858;9.206;2023-10-31T04:25:37;0.70;;;0.67;;
11313;SDS011;5712;48.858;9.206;2023-10-31T04:28:03;2.27;;;0.87;;
11313;SDS011;5712;48.858;9.206;2023-10-31T04:30:30;1.10;;;0.90;;
11313;SDS011;5712;48.858;9.206;2023-10-31T04:32:56;1.17;;;0.70;;
11313;SDS011;5712;48.858;9.206;2023-10-31T04:35:23;1.23;;;0.80;;
11313;SDS011;5712;48.858;9.206;2023-10-31T04:37:49;0.70;;;0.70;;
11313;SDS011;5712;48.858;9.206;2023-10-31T04:40:17;4.53;;;0.90;;
11313;SDS011;5712;48.858;9.206;2023-10-31T04:42:45;1.23;;;0.87;;
11313;SDS011;5712;48.858;9.206;2023-10-31T04:45:12;1.20;;;0.90;;
11313;SDS011;5712;48.858;9.206;2023-10-31T04:47:39;1.73;;;0.83;;
11313;SDS011;5712;48.858;9.206;2023-10-31T04:50:06;2.03;;;0.80;;
11313;SDS011;5712;48.858;9.206;2023-10-31T04:52:33;1.43;;;0.70;;
11313;SDS011;5712;48.858;9.206;2023-10-31T04:54:59;1.13;;;0.77;;
11313;SDS011;5712;48.858;9.206;2023-10-31T04:57:27;0.80;;;0.70;;
11313;SDS011;5712;48.858;9.206;2023-10-31T04:59:54;0.77;;;0.77;;
11313;SDS011;5712;48.858;9.206;2023-10-31T05:02:22;0.87;;;0.60;;
11313;SDS011;5712;48.858;9.206;2023-10-31T05:04:49;1.30;;;0.70;;
11313;SDS011;5712;48.858;9.206;2023-10-31T05:07:16;0.93;;;0.83;;
11313;SDS011;5712;48.858;9.206;2023-10-31T05:09:42;0.63;;;0.63;;
11313;SDS011;5712;48.858;9.206;2023-10-31T05:12:09;0.73;;;0.57;;
11313;SDS011;5712;48.858;9.206;2023-10-31T05:14:37;1.63;;;0.90;;
11313;SDS011;5712;48.858;9.206;2023-10-31T05:17:04;1.20;;;0.60;;
11313;SDS011;5712;48.858;9.206;2023-10-31T05:19:30;0.60;;;0.60;;
11313;SDS011;5712;48.858;9.206;2023-10-31T05:21:56;0.63;;;0.60;;
11313;SDS011;5712;48.858;9.206;2023-10-31T05:24:23;0.67;;;0.57;;
11313;SDS011;5712;48.858;9.206;2023-10-31T05:26:50;0.43;;;0.43;;
11313;SDS011;5712;48.858;9.206;2023-10-31T05:29:16;0.87;;;0.50;;
11313;SDS011;5712;48.858;9.206;2023-10-31T05:31:44;0.53;;;0.53;;
11313;SDS011;5712;48.858;9.206;2023-10-31T05:34:10;0.70;;;0.70;;
11313;SDS011;5712;48.858;9.206;2023-10-31T05:36:37;0.63;;;0.63;;
11313;SDS011;5712;48.858;9.206;2023-10-31T05:39:03;1.77;;;0.80;;
11313;SDS011;5712;48.858;9.206;2023-10-31T05:41:30;0.83;;;0.70;;
11313;SDS011;5712;48.858;9.206;2023-10-31T05:43:59;1.47;;;0.70;;
11313;SDS011;5712;48.858;9.206;2023-10-31T05:46:26;2.50;;;0.60;;
11313;SDS011;5712;48.858;9.206;2023-10-31T05:48:54;0.80;;;0.60;;
11313;SDS011;5712;48.858;9.206;2023-10-31T05:51:20;0.50;;;0.50;;
11313;SDS011;5712;48.858;9.206;2023-10-31T05:53:48;0.70;;;0.70;;
11313;SDS011;5712;48.858;9.206;2023-10-31T05:56:15;0.60;;;0.60;;
11313;SDS011;5712;48.858;9.206;2023-10-31T05:58:42;1.17;;;0.87;;
11313;SDS011;5712;48.858;9.206;2023-10-31T06:01:09;0.80;;;0.80;;
11313;SDS011;5712;48.858;9.206;2023-10-31T06:03:36;0.70;;;0.70;;
11313;SDS011;5712;48.858;9.206;2023-10-31T06:06:04;0.80;;;0.77;;
11313;SDS011;5712;48.858;9.206;2023-10-31T06:08:32;1.40;;;0.63;;
11313;SDS011;5712;48.858;9.206;2023-10-31T06:10:59;2.33;;;0.93;;
11313;SDS011;5712;48.858;9.206;2023-10-31T06:13:26;1.67;;;0.90;;
11313;SDS011;5712;48.858;9.206;2023-10-31T06:15:53;1.00;;;0.83;;
11313;SDS011;5712;48.858;9.206;2023-10-31T06:18:20;0.93;;;0.70;;
11313;SDS011;5712;48.858;9.206;2023-10-31T06:20:46;0.70;;;0.70;;
11313;SDS011;5712;48.858;9.206;2023-10-31T06:23:14;0.77;;;0.60;;
11313;SDS011;5712;48.858;9.206;2023-10-31T06:25:41;0.90;;;0.57;;
11313;SDS011;5712;48.858;9.206;2023-10-31T06:28:07;0.70;;;0.70;;
11313;SDS011;5712;48.858;9.206;2023-10-31T06:30:34;1.93;;;0.70;;
11313;SDS011;5712;48.858;9.206;2023-10-31T06:33:00;0.70;;;0.70;;
11313;SDS011;5712;48.858;9.206;2023-10-31T06:35:27;1.33;;;0.70;;
11313;SDS011;5712;48.858;9.206;2023-10-31T06:37:55;1.37;;;0.70;;
11313;SDS011;5712;48.858;9.206;2023-10-31T06:40:24;1.43;;;0.87;;
11313;SDS011;5712;48.858;9.206;2023-10-31T06:42:51;1.63;;;0.90;;
11313;SDS011;5712;48.858;9.206;2023-10-31T06:45:17;0.60;;;0.60;;
11313;SDS011;5712;48.858;9.206;2023-10-31T06:47:44;0.57;;;0.57;;
11313;SDS011;5712;48.858;9.206;2023-10-31T06:50:10;0.70;;;0.60;;
11313;SDS011;5712;48.858;9.206;2023-10-31T06:52:37;1.40;;;0.50;;
11313;SDS011;5712;48.858;9.206;2023-10-31T06:55:04;0.67;;;0.60;;
11313;SDS011;5712;48.858;9.206;2023-10-31T06:57:32;1.53;;;0.60;;
11313;SDS011;5712;48.858;9.206;2023-10-31T06:59:59;0.90;;;0.60;;
11313;SDS011;5712;48.858;9.206;2023-10-31T07:02:25;1.10;;;0.60;;
11313;SDS011;5712;48.858;9.206;2023-10-31T07:04:52;0.73;;;0.60;;
11313;SDS011;5712;48.858;9.206;2023-10-31T07:07:18;0.60;;;0.60;;
11313;SDS011;5712;48.858;9.206;2023-10-31T07:09:45;0.50;;;0.50;;
11313;SDS011;5712;48.858;9.206;2023-10-31T07:12:11;0.50;;;0.50;;
11313;SDS011;5712;48.858;9.206;2023-10-31T07:14:39;1.07;;;0.60;;
11313;SDS011;5712;48.858;9.206;2023-10-31T07:17:05;1.33;;;0.70;;
11313;SDS011;5712;48.858;9.206;2023-10-31T07:19:32;0.90;;;0.70;;
11313;SDS011;5712;48.858;9.206;2023-10-31T07:21:58;1.80;;;0.70;;
11313;SDS011;5712;48.858;9.206;2023-10-31T07:24:25;1.20;;;0.70;;
11313;SDS011;5712;48.858;9.206;2023-10-31T07:26:52;0.77;;;0.60;;
11313;SDS011;5712;48.858;9.206;2023-10-31T07:29:19;0.80;;;0.70;;
11313;SDS011;5712;48.858;9.206;2023-10-31T07:31:47;1.60;;;0.83;;
11313;SDS011;5712;48.858;9.206;2023-10-31T07:34:13;0.80;;;0.60;;
11313;SDS011;5712;48.858;9.206;2023-10-31T07:36:40;0.80;;;0.70;;
11313;SDS011;5712;48.858;9.206;2023-10-31T07:39:07;0.80;;;0.80;;
11313;SDS011;5712;48.858;9.206;2023-10-31T07:41:35;0.60;;;0.60;;
11313;SDS011;5712;48.858;9.206;2023-10-31T07:44:02;1.17;;;0.83;;
11313;SDS011;5712;48.858;9.206;2023-10-31T07:46:28;2.27;;;0.70;;
11313;SDS011;5712;48.858;9.206;2023-10-31T07:48:56;2.30;;;0.70;;
11313;SDS011;5712;48.858;9.206;2023-10-31T07:51:23;2.07;;;0.80;;
11313;SDS011;5712;48.858;9.206;2023-10-31T07:53:49;0.73;;;0.70;;
11313;SDS011;5712;48.858;9.206;2023-10-31T07:56:18;1.20;;;0.80;;
11313;SDS011;5712;48.858;9.206;2023-10-31T07:58:47;0.53;;;0.53;;
11313;SDS011;5712;48.858;9.206;2023-10-31T08:01:14;1.23;;;0.70;;
11313;SDS011;5712;48.858;9.206;2023-10-31T08:03:41;0.90;;;0.80;;
11313;SDS011;5712;48.858;9.206;2023-10-31T08:06:10;0.80;;;0.70;;
11313;SDS011;5712;48.858;9.206;2023-10-31T08:08:37;0.70;;;0.70;;
11313;SDS011;5712;48.858;9.206;2023-10-31T08:11:03;0.67;;;0.60;;
11313;SDS011;5712;48.858;9.206;2023-10-31T08:13:33;2.13;;;0.80;;
11313;SDS011;5712;48.858;9.206;2023-10-31T08:15:59;0.83;;;0.70;;
11313;SDS011;5712;48.858;9.206;2023-10-31T08:18:26;0.60;;;0.60;;
11313;SDS011;5712;48.858;9.206;2023-10-31T08:20:52;2.53;;;0.80;;
11313;SDS011;5712;48.858;9.206;2023-10-31T08:23:20;1.00;;;0.90;;
11313;SDS011;5712;48.858;9.206;2023-10-31T08:25:47;0.50;;;0.50;;
11313;SDS011;5712;48.858;9.206;2023-10-31T08:28:14;0.50;;;0.50;;
11313;SDS011;5712;48.858;9.206;2023-10-31T08:30:40;1.73;;;0.70;;
11313;SDS011;5712;48.858;9.206;2023-10-31T08:33:07;1.10;;;0.83;;
11313;SDS011;5712;48.858;9.206;2023-10-31T08:35:34;0.93;;;0.57;;
11313;SDS011;5712;48.858;9.206;2023-10-31T08:38:01;1.33;;;0.60;;
11313;SDS011;5712;48.858;9.206;2023-10-31T08:40:28;0.60;;;0.50;;
11313;SDS011;5712;48.858;9.206;2023-10-31T08:42:55;0.87;;;0.60;;
11313;SDS011;5712;48.858;9.206;2023-10-31T08:45:22;1.23;;;0.70;;
11313;SDS011;5712;48.858;9.206;2023-10-31T08:47:48;1.33;;;0.60;;
11313;SDS011;5712;48.858;9.206;2023-10-31T08:50:15;0.90;;;0.67;;
11313;SDS011;5712;48.858;9.206;2023-10-31T08:52:41;1.30;;;0.70;;
11313;SDS011;5712;48.858;9.206;2023-10-31T08:55:08;0.90;;;0.63;;
11313;SDS011;5712;48.858;9.206;2023-10-31T08:57:36;0.80;;;0.63;;
11313;SDS011;5712;48.858;9.206;2023-10-31T09:00:03;1.03;;;0.60;;
11313;SDS011;5712;48.858;9.206;2023-10-31T09:02:31;0.97;;;0.60;;
11313;SDS011;5712;48.858;9.206;2023-10-31T09:04:57;1.53;;;0.60;;
11313;SDS011;5712;48.858;9.206;2023-10-31T09:07:23;0.53;;;0.50;;
11313;SDS011;5712;48.858;9.206;2023-10-31T09:09:50;0.60;;;0.60;;
11313;SDS011;5712;48.858;9.206;2023-10-31T09:12:16;2.03;;;0.70;;
11313;SDS011;5712;48.858;9.206;2023-10-31T09:14:44;1.23;;;0.80;;
11313;SDS011;5712;48.858;9.206;2023-10-31T09:17:11;1.03;;;0.50;;
11313;SDS011;5712;48.858;9.206;2023-10-31T09:19:38;1.57;;;0.67;;
11313;SDS011;5712;48.858;9.206;2023-10-31T09:22:04;1.53;;;0.70;;
11313;SDS011;5712;48.858;9.206;2023-10-31T09:24:31;1.50;;;0.43;;
11313;SDS011;5712;48.858;9.206;2023-10-31T09:26:57;1.07;;;0.67;;
11313;SDS011;5712;48.858;9.206;2023-10-31T09:29:24;2.13;;;0.70;;
11313;SDS011;5712;48.858;9.206;2023-10-31T09:31:51;1.63;;;0.50;;
11313;SDS011;5712;48.858;9.206;2023-10-31T09:34:18;1.00;;;0.53;;
11313;SDS011;5712;48.858;9.206;2023-10-31T09:36:44;0.70;;;0.50;;
11313;SDS011;5712;48.858;9.206;2023-10-31T09:39:11;1.73;;;0.80;;
11313;SDS011;5712;48.858;9.206;2023-10-31T09:41:37;1.33;;;0.80;;
11313;SDS011;5712;48.858;9.206;2023-10-31T09:44:04;1.63;;;0.60;;
11313;SDS011;5712;48.858;9.206;2023-10-31T09:46:31;1.57;;;0.80;;
11313;SDS011;5712;48.858;9.206;2023-10-31T09:48:59;0.97;;;0.60;;
11313;SDS011;5712;48.858;9.206;2023-10-31T09:51:26;2.97;;;0.80;;
11313;SDS011;5712;48.858;9.206;2023-10-31T09:53:54;1.10;;;0.90;;
11313;SDS011;5712;48.858;9.206;2023-10-31T09:56:21;4.77;;;1.40;;
11313;SDS011;5712;48.858;9.206;2023-10-31T09:58:48;1.10;;;0.70;;
11313;SDS011;5712;48.858;9.206;2023-10-31T10:01:14;2.13;;;0.73;;
11313;SDS011;5712;48.858;9.206;2023-10-31T10:03:41;2.50;;;1.38;;
11313;SDS011;5712;48.858;9.206;2023-10-31T10:06:10;1.83;;;1.03;;
11313;SDS011;5712;48.858;9.206;2023-10-31T10:08:37;1.93;;;0.70;;
11313;SDS011;5712;48.858;9.206;2023-10-31T10:11:04;2.57;;;0.90;;
11313;SDS011;5712;48.858;9.206;2023-10-31T10:13:31;3.20;;;0.70;;
11313;SDS011;5712;48.858;9.206;2023-10-31T10:15:58;1.20;;;0.80;;
11313;SDS011;5712;48.858;9.206;2023-10-31T10:18:26;1.60;;;0.70;;
11313;SDS011;5712;48.858;9.206;2023-10-31T10:20:56;2.73;;;0.80;;
11313;SDS011;5712;48.858;9.206;2023-10-31T10:23:25;1.07;;;0.80;;
11313;SDS011;5712;48.858;9.206;2023-10-31T10:25:53;2.30;;;0.50;;
11313;SDS011;5712;48.858;9.206;2023-10-31T10:28:20;2.03;;;0.80;;
11313;SDS011;5712;48.858;9.206;2023-10-31T10:30:46;1.93;;;0.80;;
11313;SDS011;5712;48.858;9.206;2023-10-31T10:33:13;0.90;;;0.70;;
11313;SDS011;5712;48.858;9.206;2023-10-31T10:35:40;2.73;;;0.90;;
11313;SDS011;5712;48.858;9.206;2023-10-31T10:38:12;3.37;;;0.80;;
11313;SDS011;5712;48.858;9.206;2023-10-31T10:40:41;2.70;;;0.70;;
11313;SDS011;5712;48.858;9.206;2023-10-31T10:43:11;1.23;;;0.80;;
11313;SDS011;5712;48.858;9.206;2023-10-31T10:45:41;4.20;;;0.90;;
11313;SDS011;5712;48.858;9.206;2023-10-31T10:48:10;5.50;;;0.93;;
11313;SDS011;5712;48.858;9.206;2023-10-31T10:50:40;2.67;;;1.00;;
11313;SDS011;5712;48.858;9.206;2023-10-31T10:53:27;1.70;;;0.57;;
11313;SDS011;5712;48.858;9.206;2023-10-31T10:55:59;0.73;;;0.47;;
11313;SDS011;5712;48.858;9.206;2023-10-31T10:58:34;2.50;;;0.73;;
11313;SDS011;5712;48.858;9.206;2023-10-31T11:01:07;2.20;;;0.80;;
11313;SDS011;5712;48.858;9.206;2023-10-31T11:03:35;1.03;;;0.53;;
11313;SDS011;5712;48.858;9.206;2023-10-31T11:06:03;1.27;;;0.60;;
11313;SDS011;5712;48.858;9.206;2023-10-31T11:08:32;1.03;;;0.60;;
11313;SDS011;5712;48.858;9.206;2023-10-31T11:11:01;2.93;;;0.60;;
11313;SDS011;5712;48.858;9.206;2023-10-31T11:13:28;1.73;;;0.60;;
11313;SDS011;5712;48.858;9.206;2023-10-31T11:15:55;3.20;;;0.70;;
11313;SDS011;5712;48.858;9.206;2023-10-31T11:18:27;2.60;;;0.97;;
11313;SDS011;5712;48.858;9.206;2023-10-31T11:20:54;2.87;;;0.80;;
11313;SDS011;5712;48.858;9.206;2023-10-31T11:23:21;1.83;;;0.70;;
11313;SDS011;5712;48.858;9.206;2023-10-31T11:25:49;1.07;;;0.60;;
11313;SDS011;5712;48.858;9.206;2023-10-31T11:28:19;1.10;;;0.80;;
11313;SDS011;5712;48.858;9.206;2023-10-31T11:30:47;2.60;;;1.00;;
11313;SDS011;5712;48.858;9.206;2023-10-31T11:33:15;2.00;;;0.87;;
11313;SDS011;5712;48.858;9.206;2023-10-31T11:35:45;1.67;;;1.10;;
11313;SDS011;5712;48.858;9.206;2023-10-31T11:38:16;1.73;;;0.73;;
11313;SDS011;5712;48.858;9.206;2023-10-31T11:41:01;2.03;;;0.77;;
11313;SDS011;5712;48.858;9.206;2023-10-31T11:43:51;3.30;;;1.10;;
11313;SDS011;5712;48.858;9.206;2023-10-31T11:46:18;0.87;;;0.63;;
11313;SDS011;5712;48.858;9.206;2023-10-31T11:48:46;0.88;;;0.70;;
11313;SDS011;5712;48.858;9.206;2023-10-31T11:51:15;1.20;;;0.50;;
11313;SDS011;5712;48.858;9.206;2023-10-31T11:53:41;2.63;;;0.70;;
11313;SDS011;5712;48.858;9.206;2023-10-31T11:56:10;1.50;;;0.67;;
11313;SDS011;5712;48.858;9.206;2023-10-31T11:58:37;1.70;;;0.70;;
11313;SDS011;5712;48.858;9.206;2023-10-31T12:01:05;3.27;;;1.00;;
11313;SDS011;5712;48.858;9.206;2023-10-31T12:03:36;1.67;;;0.77;;
11313;SDS011;5712;48.858;9.206;2023-10-31T12:06:04;0.93;;;0.70;;
11313;SDS011;5712;48.858;9.206;2023-10-31T12:08:32;2.60;;;0.83;;
11313;SDS011;5712;48.858;9.206;2023-10-31T12:11:05;1.40;;;0.60;;
11313;SDS011;5712;48.858;9.206;2023-10-31T12:13:33;2.50;;;0.63;;
11313;SDS011;5712;48.858;9.206;2023-10-31T12:16:01;1.77;;;0.70;;
11313;SDS011;5712;48.858;9.206;2023-10-31T12:18:33;1.67;;;0.70;;
11313;SDS011;5712;48.858;9.206;2023-10-31T12:21:00;1.77;;;0.60;;
11313;SDS011;5712;48.858;9.206;2023-10-31T12:23:27;1.80;;;0.70;;
11313;SDS011;5712;48.858;9.206;2023-10-31T12:25:54;1.03;;;0.67;;
11313;SDS011;5712;48.858;9.206;2023-10-31T12:28:22;1.35;;;0.82;;
11313;SDS011;5712;48.858;9.206;2023-10-31T12:30:50;2.50;;;0.70;;
11313;SDS011;5712;48.858;9.206;2023-10-31T12:33:19;1.73;;;1.10;;
11313;SDS011;5712;48.858;9.206;2023-10-31T12:35:48;1.40;;;1.10;;
11313;SDS011;5712;48.858;9.206;2023-10-31T12:38:15;1.73;;;1.20;;
11313;SDS011;5712;48.858;9.206;2023-10-31T12:40:43;3.17;;;1.30;;
11313;SDS011;5712;48.858;9.206;2023-10-31T12:43:10;3.07;;;1.50;;
11313;SDS011;5712;48.858;9.206;2023-10-31T12:45:36;2.10;;;1.40;;
11313;SDS011;5712;48.858;9.206;2023-10-31T12:48:03;1.83;;;1.40;;
11313;SDS011;5712;48.858;9.206;2023-10-31T12:50:31;2.07;;;1.50;;
11313;SDS011;5712;48.858;9.206;2023-10-31T12:52:59;1.50;;;1.30;;
11313;SDS011;5712;48.858;9.206;2023-10-31T12:55:28;2.67;;;1.40;;
11313;SDS011;5712;48.858;9.206;2023-10-31T12:57:56;2.23;;;1.20;;
11313;SDS011;5712;48.858;9.206;2023-10-31T13:00:29;2.07;;;1.20;;
11313;SDS011;5712;48.858;9.206;2023-10-31T13:02:59;1.17;;;1.07;;
11313;SDS011;5712;48.858;9.206;2023-10-31T13:05:27;1.93;;;1.20;;
11313;SDS011;5712;48.858;9.206;2023-10-31T13:07:54;2.17;;;1.20;;
11313;SDS011;5712;48.858;9.206;2023-10-31T13:10:24;2.83;;;1.40;;
11313;SDS011;5712;48.858;9.206;2023-10-31T13:12:51;4.00;;;1.10;;
11313;SDS011;5712;48.858;9.206;2023-10-31T13:15:19;2.00;;;1.07;;
11313;SDS011;5712;48.858;9.206;2023-10-31T13:17:47;2.97;;;1.13;;
11313;SDS011;5712;48.858;9.206;2023-10-31T13:20:14;3.27;;;0.90;;
11313;SDS011;5712;48.858;9.206;2023-10-31T13:22:43;1.03;;;0.70;;
11313;SDS011;5712;48.858;9.206;2023-10-31T13:25:10;0.87;;;0.70;;
11313;SDS011;5712;48.858;9.206;2023-10-31T13:27:39;1.20;;;0.90;;
11313;SDS011;5712;48.858;9.206;2023-10-31T13:30:08;1.67;;;1.00;;
11313;SDS011;5712;48.858;9.206;2023-10-31T13:32:35;1.33;;;1.20;;
11313;SDS011;5712;48.858;9.206;2023-10-31T13:35:02;2.33;;;1.10;;
11313;SDS011;5712;48.858;9.206;2023-10-31T13:37:29;2.03;;;1.00;;
11313;SDS011;5712;48.858;9.206;2023-10-31T13:39:56;1.33;;;0.97;;
11313;SDS011;5712;48.858;9.206;2023-10-31T13:42:23;1.50;;;0.80;;
11313;SDS011;5712;48.858;9.206;2023-10-31T13:44:52;1.67;;;0.83;;
11313;SDS011;5712;48.858;9.206;2023-10-31T13:47:18;1.77;;;1.00;;
11313;SDS011;5712;48.858;9.206;2023-10-31T13:49:45;1.93;;;1.10;;
11313;SDS011;5712;48.858;9.206;2023-10-31T13:52:11;2.30;;;1.00;;
11313;SDS011;5712;48.858;9.206;2023-10-31T13:54:38;1.83;;;1.17;;
11313;SDS011;5712;48.858;9.206;2023-10-31T13:57:04;1.70;;;0.93;;
11313;SDS011;5712;48.858;9.206;2023-10-31T13:59:31;1.30;;;0.90;;
11313;SDS011;5712;48.858;9.206;2023-10-31T14:02:03;1.10;;;0.77;;
11313;SDS011;5712;48.858;9.206;2023-10-31T14:04:30;0.63;;;0.60;;
11313;SDS011;5712;48.858;9.206;2023-10-31T14:06:57;0.60;;;0.57;;
11313;SDS011;5712;48.858;9.206;2023-10-31T14:09:28;1.80;;;0.60;;
11313;SDS011;5712;48.858;9.206;2023-10-31T14:11:55;1.83;;;0.53;;
11313;SDS011;5712;48.858;9.206;2023-10-31T14:14:22;0.60;;;0.60;;
11313;SDS011;5712;48.858;9.206;2023-10-31T14:16:48;1.33;;;1.07;;
11313;SDS011;5712;48.858;9.206;2023-10-31T14:19:16;1.03;;;0.90;;
11313;SDS011;5712;48.858;9.206;2023-10-31T14:21:42;1.00;;;0.70;;
11313;SDS011;5712;48.858;9.206;2023-10-31T14:24:09;1.57;;;0.80;;
11313;SDS011;5712;48.858;9.206;2023-10-31T14:26:36;0.70;;;0.53;;
11313;SDS011;5712;48.858;9.206;2023-10-31T14:29:03;0.57;;;0.57;;
11313;SDS011;5712;48.858;9.206;2023-10-31T14:31:30;0.80;;;0.77;;
11313;SDS011;5712;48.858;9.206;2023-10-31T14:33:56;2.90;;;0.80;;
11313;SDS011;5712;48.858;9.206;2023-10-31T14:36:25;2.13;;;0.80;;
11313;SDS011;5712;48.858;9.206;2023-10-31T14:38:52;2.20;;;1.07;;
11313;SDS011;5712;48.858;9.206;2023-10-31T14:41:18;1.57;;;0.60;;
11313;SDS011;5712;48.858;9.206;2023-10-31T14:43:45;1.00;;;0.80;;
11313;SDS011;5712;48.858;9.206;2023-10-31T14:46:12;1.17;;;0.80;;
11313;SDS011;5712;48.858;9.206;2023-10-31T14:48:38;2.20;;;0.80;;
11313;SDS011;5712;48.858;9.206;2023-10-31T14:51:05;1.00;;;0.60;;
11313;SDS011;5712;48.858;9.206;2023-10-31T14:53:33;1.97;;;0.60;;
11313;SDS011;5712;48.858;9.206;2023-10-31T14:55:59;0.60;;;0.60;;
11313;SDS011;5712;48.858;9.206;2023-10-31T14:58:26;1.00;;;0.70;;
11313;SDS011;5712;48.858;9.206;2023-10-31T15:00:53;1.30;;;0.60;;